sensor_id;sensor_type;location;lat;lon;timestamp;P1;durP1;ratioP1;P2;durP2;ratioP2
26052;SDS011;13826;51.186;4.450;2022-07-25T00:02:26;13.75;;;5.47;;
26052;SDS011;13826;51.186;4.450;2022-07-25T00:04:52;7.78;;;5.63;;
26052;SDS011;13826;51.186;4.450;2022-07-25T00:07:18;8.32;;;5.47;;
26052;SDS011;13826;51.186;4.450;2022-07-25T00:09:44;9.15;;;5.30;;
26052;SDS011;13826;51.186;4.450;2022-07-25T00:12:09;10.48;;;5.57;;
26052;SDS011;13826;51.186;4.450;2022-07-25T00:14:35;18.42;;;7.15;;
26052;SDS011;13826;51.186;4.450;2022-07-25T00:17:00;9.30;;;5.72;;
26052;SDS011;13826;51.186;4.450;2022-07-25T00:19:26;11.48;;;6.05;;
26052;SDS011;13826;51.186;4.450;2022-07-25T00:21:52;11.32;;;5.45;;
26052;SDS011;13826;51.186;4.450;2022-07-25T00:24:18;8.80;;;5.28;;
26052;SDS011;13826;51.186;4.450;2022-07-25T00:26:43;8.40;;;5.50;;
26052;SDS011;13826;51.186;4.450;2022-07-25T00:29:09;6.63;;;5.15;;
26052;SDS011;13826;51.186;4.450;2022-07-25T00:31:35;13.88;;;5.53;;
26052;SDS011;13826;51.186;4.450;2022-07-25T00:34:00;10.68;;;5.97;;
26052;SDS011;13826;51.186;4.450;2022-07-25T00:36:26;8.75;;;5.03;;
26052;SDS011;13826;51.186;4.450;2022-07-25T00:38:52;6.95;;;4.90;;
26052;SDS011;13826;51.186;4.450;2022-07-25T00:41:18;6.93;;;5.47;;
26052;SDS011;13826;51.186;4.450;2022-07-25T00:43:44;6.55;;;5.22;;
26052;SDS011;13826;51.186;4.450;2022-07-25T00:46:14;7.80;;;5.70;;
26052;SDS011;13826;51.186;4.450;2022-07-25T00:48:40;8.20;;;5.43;;
26052;SDS011;13826;51.186;4.450;2022-07-25T00:51:07;7.18;;;5.13;;
26052;SDS011;13826;51.186;4.450;2022-07-25T00:53:34;7.03;;;5.30;;
26052;SDS011;13826;51.186;4.450;2022-07-25T00:56:00;8.48;;;5.78;;
26052;SDS011;13826;51.186;4.450;2022-07-25T00:58:26;10.85;;;5.40;;
26052;SDS011;13826;51.186;4.450;2022-07-25T01:00:51;9.15;;;5.75;;
26052;SDS011;13826;51.186;4.450;2022-07-25T01:03:17;7.65;;;5.40;;
26052;SDS011;13826;51.186;4.450;2022-07-25T01:05:43;7.55;;;5.57;;
26052;SDS011;13826;51.186;4.450;2022-07-25T01:08:09;8.05;;;5.28;;
26052;SDS011;13826;51.186;4.450;2022-07-25T01:10:34;8.18;;;5.10;;
26052;SDS011;13826;51.186;4.450;2022-07-25T01:13:00;12.45;;;5.60;;
26052;SDS011;13826;51.186;4.450;2022-07-25T01:15:26;9.35;;;5.72;;
26052;SDS011;13826;51.186;4.450;2022-07-25T01:17:52;8.48;;;5.32;;
26052;SDS011;13826;51.186;4.450;2022-07-25T01:20:21;8.07;;;5.30;;
26052;SDS011;13826;51.186;4.450;2022-07-25T01:22:51;7.07;;;5.50;;
26052;SDS011;13826;51.186;4.450;2022-07-25T01:25:17;13.98;;;5.35;;
26052;SDS011;13826;51.186;4.450;2022-07-25T01:27:44;10.20;;;5.53;;
26052;SDS011;13826;51.186;4.450;2022-07-25T01:30:12;8.13;;;5.28;;
26052;SDS011;13826;51.186;4.450;2022-07-25T01:32:39;9.80;;;5.60;;
26052;SDS011;13826;51.186;4.450;2022-07-25T01:35:06;7.40;;;5.07;;
26052;SDS011;13826;51.186;4.450;2022-07-25T01:37:32;8.00;;;5.68;;
26052;SDS011;13826;51.186;4.450;2022-07-25T01:39:58;10.90;;;5.82;;
26052;SDS011;13826;51.186;4.450;2022-07-25T01:42:24;7.40;;;5.47;;
26052;SDS011;13826;51.186;4.450;2022-07-25T01:44:49;7.70;;;5.40;;
26052;SDS011;13826;51.186;4.450;2022-07-25T01:47:15;10.05;;;5.68;;
26052;SDS011;13826;51.186;4.450;2022-07-25T01:49:41;10.32;;;6.15;;
26052;SDS011;13826;51.186;4.450;2022-07-25T01:52:08;11.30;;;5.90;;
26052;SDS011;13826;51.186;4.450;2022-07-25T01:54:34;11.40;;;6.45;;
26052;SDS011;13826;51.186;4.450;2022-07-25T01:57:00;7.82;;;5.68;;
26052;SDS011;13826;51.186;4.450;2022-07-25T01:59:25;10.45;;;6.93;;
26052;SDS011;13826;51.186;4.450;2022-07-25T02:01:51;9.23;;;5.70;;
26052;SDS011;13826;51.186;4.450;2022-07-25T02:04:17;8.80;;;5.80;;
26052;SDS011;13826;51.186;4.450;2022-07-25T02:06:42;9.30;;;5.70;;
26052;SDS011;13826;51.186;4.450;2022-07-25T02:09:08;16.45;;;6.22;;
26052;SDS011;13826;51.186;4.450;2022-07-25T02:11:34;6.65;;;5.60;;
26052;SDS011;13826;51.186;4.450;2022-07-25T02:14:00;10.85;;;5.88;;
26052;SDS011;13826;51.186;4.450;2022-07-25T02:16:26;9.82;;;5.72;;
26052;SDS011;13826;51.186;4.450;2022-07-25T02:18:52;8.63;;;5.95;;
26052;SDS011;13826;51.186;4.450;2022-07-25T02:21:18;14.68;;;6.35;;
26052;SDS011;13826;51.186;4.450;2022-07-25T02:23:44;9.20;;;6.13;;
26052;SDS011;13826;51.186;4.450;2022-07-25T02:26:10;7.13;;;5.35;;
26052;SDS011;13826;51.186;4.450;2022-07-25T02:28:36;9.20;;;5.50;;
26052;SDS011;13826;51.186;4.450;2022-07-25T02:31:02;10.88;;;6.35;;
26052;SDS011;13826;51.186;4.450;2022-07-25T02:33:28;7.82;;;5.60;;
26052;SDS011;13826;51.186;4.450;2022-07-25T02:35:54;10.45;;;6.03;;
26052;SDS011;13826;51.186;4.450;2022-07-25T02:38:19;9.10;;;5.53;;
26052;SDS011;13826;51.186;4.450;2022-07-25T02:40:49;9.55;;;5.80;;
26052;SDS011;13826;51.186;4.450;2022-07-25T02:43:16;8.55;;;6.00;;
26052;SDS011;13826;51.186;4.450;2022-07-25T02:45:42;13.25;;;6.22;;
26052;SDS011;13826;51.186;4.450;2022-07-25T02:48:08;10.60;;;5.70;;
26052;SDS011;13826;51.186;4.450;2022-07-25T02:50:34;10.20;;;5.75;;
26052;SDS011;13826;51.186;4.450;2022-07-25T02:53:00;12.18;;;6.07;;
26052;SDS011;13826;51.186;4.450;2022-07-25T02:55:26;11.95;;;6.72;;
26052;SDS011;13826;51.186;4.450;2022-07-25T02:57:51;8.40;;;5.57;;
26052;SDS011;13826;51.186;4.450;2022-07-25T03:00:17;11.55;;;6.35;;
26052;SDS011;13826;51.186;4.450;2022-07-25T03:02:43;7.35;;;5.45;;
26052;SDS011;13826;51.186;4.450;2022-07-25T03:05:10;12.98;;;6.00;;
26052;SDS011;13826;51.186;4.450;2022-07-25T03:07:37;10.25;;;5.78;;
26052;SDS011;13826;51.186;4.450;2022-07-25T03:10:03;7.53;;;5.63;;
26052;SDS011;13826;51.186;4.450;2022-07-25T03:12:30;8.82;;;5.82;;
26052;SDS011;13826;51.186;4.450;2022-07-25T03:15:00;9.23;;;5.75;;
26052;SDS011;13826;51.186;4.450;2022-07-25T03:17:26;7.18;;;5.63;;
26052;SDS011;13826;51.186;4.450;2022-07-25T03:19:53;11.20;;;6.07;;
26052;SDS011;13826;51.186;4.450;2022-07-25T03:22:19;15.60;;;6.47;;
26052;SDS011;13826;51.186;4.450;2022-07-25T03:24:46;13.82;;;6.18;;
26052;SDS011;13826;51.186;4.450;2022-07-25T03:27:12;11.50;;;5.53;;
26052;SDS011;13826;51.186;4.450;2022-07-25T03:29:38;12.50;;;6.53;;
26052;SDS011;13826;51.186;4.450;2022-07-25T03:32:03;9.05;;;5.65;;
26052;SDS011;13826;51.186;4.450;2022-07-25T03:34:30;8.95;;;5.70;;
26052;SDS011;13826;51.186;4.450;2022-07-25T03:36:55;8.55;;;5.85;;
26052;SDS011;13826;51.186;4.450;2022-07-25T03:39:21;10.13;;;5.63;;
26052;SDS011;13826;51.186;4.450;2022-07-25T03:41:48;9.48;;;5.82;;
26052;SDS011;13826;51.186;4.450;2022-07-25T03:44:14;13.85;;;6.10;;
26052;SDS011;13826;51.186;4.450;2022-07-25T03:46:40;14.40;;;6.55;;
26052;SDS011;13826;51.186;4.450;2022-07-25T03:49:06;11.43;;;5.40;;
26052;SDS011;13826;51.186;4.450;2022-07-25T03:51:31;8.02;;;5.30;;
26052;SDS011;13826;51.186;4.450;2022-07-25T03:53:57;6.47;;;4.50;;
26052;SDS011;13826;51.186;4.450;2022-07-25T03:56:36;6.72;;;4.07;;
26052;SDS011;13826;51.186;4.450;2022-07-25T03:59:03;8.25;;;3.90;;
26052;SDS011;13826;51.186;4.450;2022-07-25T04:01:30;6.55;;;3.83;;
26052;SDS011;13826;51.186;4.450;2022-07-25T04:03:57;5.63;;;3.83;;
26052;SDS011;13826;51.186;4.450;2022-07-25T04:06:23;6.22;;;3.53;;
26052;SDS011;13826;51.186;4.450;2022-07-25T04:08:49;6.35;;;3.95;;
26052;SDS011;13826;51.186;4.450;2022-07-25T04:11:15;6.70;;;3.70;;
26052;SDS011;13826;51.186;4.450;2022-07-25T04:13:41;10.20;;;3.78;;
26052;SDS011;13826;51.186;4.450;2022-07-25T04:16:07;8.20;;;3.35;;
26052;SDS011;13826;51.186;4.450;2022-07-25T04:18:33;8.52;;;3.38;;
26052;SDS011;13826;51.186;4.450;2022-07-25T04:20:59;5.80;;;3.53;;
26052;SDS011;13826;51.186;4.450;2022-07-25T04:23:26;7.88;;;3.13;;
26052;SDS011;13826;51.186;4.450;2022-07-25T04:25:52;4.80;;;3.03;;
26052;SDS011;13826;51.186;4.450;2022-07-25T04:28:18;5.07;;;3.00;;
26052;SDS011;13826;51.186;4.450;2022-07-25T04:30:44;5.28;;;3.33;;
26052;SDS011;13826;51.186;4.450;2022-07-25T04:33:10;6.38;;;3.03;;
26052;SDS011;13826;51.186;4.450;2022-07-25T04:35:37;4.85;;;3.00;;
26052;SDS011;13826;51.186;4.450;2022-07-25T04:38:03;7.88;;;3.28;;
26052;SDS011;13826;51.186;4.450;2022-07-25T04:40:28;9.40;;;3.63;;
26052;SDS011;13826;51.186;4.450;2022-07-25T04:42:54;11.68;;;2.92;;
26052;SDS011;13826;51.186;4.450;2022-07-25T04:45:20;6.50;;;3.08;;
26052;SDS011;13826;51.186;4.450;2022-07-25T04:47:46;5.75;;;3.00;;
26052;SDS011;13826;51.186;4.450;2022-07-25T04:50:11;9.13;;;3.65;;
26052;SDS011;13826;51.186;4.450;2022-07-25T04:52:38;9.48;;;3.08;;
26052;SDS011;13826;51.186;4.450;2022-07-25T04:55:04;7.18;;;3.30;;
26052;SDS011;13826;51.186;4.450;2022-07-25T04:57:30;8.43;;;3.13;;
26052;SDS011;13826;51.186;4.450;2022-07-25T04:59:55;7.57;;;3.72;;
26052;SDS011;13826;51.186;4.450;2022-07-25T05:02:22;5.88;;;3.22;;
26052;SDS011;13826;51.186;4.450;2022-07-25T05:04:48;9.95;;;3.97;;
26052;SDS011;13826;51.186;4.450;2022-07-25T05:07:14;5.53;;;3.38;;
26052;SDS011;13826;51.186;4.450;2022-07-25T05:09:40;7.25;;;3.20;;
26052;SDS011;13826;51.186;4.450;2022-07-25T05:12:05;5.05;;;2.63;;
26052;SDS011;13826;51.186;4.450;2022-07-25T05:14:31;14.50;;;3.33;;
26052;SDS011;13826;51.186;4.450;2022-07-25T05:16:57;11.50;;;3.95;;
26052;SDS011;13826;51.186;4.450;2022-07-25T05:19:22;14.50;;;3.97;;
26052;SDS011;13826;51.186;4.450;2022-07-25T05:21:48;9.32;;;3.10;;
26052;SDS011;13826;51.186;4.450;2022-07-25T05:24:14;6.20;;;3.53;;
26052;SDS011;13826;51.186;4.450;2022-07-25T05:26:39;11.25;;;3.30;;
26052;SDS011;13826;51.186;4.450;2022-07-25T05:29:05;7.68;;;3.05;;
26052;SDS011;13826;51.186;4.450;2022-07-25T05:31:30;12.50;;;3.80;;
26052;SDS011;13826;51.186;4.450;2022-07-25T05:33:56;5.20;;;2.45;;
26052;SDS011;13826;51.186;4.450;2022-07-25T05:36:22;12.88;;;3.10;;
26052;SDS011;13826;51.186;4.450;2022-07-25T05:38:47;11.13;;;3.42;;
26052;SDS011;13826;51.186;4.450;2022-07-25T05:41:13;9.85;;;3.05;;
26052;SDS011;13826;51.186;4.450;2022-07-25T05:43:39;9.82;;;2.40;;
26052;SDS011;13826;51.186;4.450;2022-07-25T05:46:10;8.15;;;2.88;;
26052;SDS011;13826;51.186;4.450;2022-07-25T05:48:35;6.68;;;2.90;;
26052;SDS011;13826;51.186;4.450;2022-07-25T05:51:01;7.88;;;2.40;;
26052;SDS011;13826;51.186;4.450;2022-07-25T05:53:27;13.77;;;3.00;;
26052;SDS011;13826;51.186;4.450;2022-07-25T05:55:53;11.25;;;3.05;;
26052;SDS011;13826;51.186;4.450;2022-07-25T05:58:18;9.75;;;2.88;;
26052;SDS011;13826;51.186;4.450;2022-07-25T06:00:44;8.20;;;2.63;;
26052;SDS011;13826;51.186;4.450;2022-07-25T06:03:10;12.32;;;2.83;;
26052;SDS011;13826;51.186;4.450;2022-07-25T06:05:39;10.40;;;3.10;;
26052;SDS011;13826;51.186;4.450;2022-07-25T06:08:24;7.75;;;2.70;;
26052;SDS011;13826;51.186;4.450;2022-07-25T06:10:56;10.23;;;3.55;;
26052;SDS011;13826;51.186;4.450;2022-07-25T06:13:40;12.90;;;3.40;;
26052;SDS011;13826;51.186;4.450;2022-07-25T06:16:29;9.02;;;2.40;;
26052;SDS011;13826;51.186;4.450;2022-07-25T06:18:55;15.02;;;2.47;;
26052;SDS011;13826;51.186;4.450;2022-07-25T06:21:21;10.70;;;3.08;;
26052;SDS011;13826;51.186;4.450;2022-07-25T06:23:46;8.48;;;2.70;;
26052;SDS011;13826;51.186;4.450;2022-07-25T06:26:12;6.43;;;2.80;;
26052;SDS011;13826;51.186;4.450;2022-07-25T06:28:38;16.73;;;3.15;;
26052;SDS011;13826;51.186;4.450;2022-07-25T06:31:04;9.70;;;2.70;;
26052;SDS011;13826;51.186;4.450;2022-07-25T06:33:29;9.48;;;3.10;;
26052;SDS011;13826;51.186;4.450;2022-07-25T06:35:55;9.18;;;2.90;;
26052;SDS011;13826;51.186;4.450;2022-07-25T06:38:21;9.95;;;3.13;;
26052;SDS011;13826;51.186;4.450;2022-07-25T06:40:46;7.32;;;2.70;;
26052;SDS011;13826;51.186;4.450;2022-07-25T06:43:12;8.90;;;2.30;;
26052;SDS011;13826;51.186;4.450;2022-07-25T06:45:38;9.85;;;3.45;;
26052;SDS011;13826;51.186;4.450;2022-07-25T06:48:03;15.75;;;3.10;;
26052;SDS011;13826;51.186;4.450;2022-07-25T06:50:29;19.38;;;3.53;;
26052;SDS011;13826;51.186;4.450;2022-07-25T06:52:55;13.63;;;3.72;;
26052;SDS011;13826;51.186;4.450;2022-07-25T06:55:21;10.40;;;2.70;;
26052;SDS011;13826;51.186;4.450;2022-07-25T06:57:46;13.52;;;5.00;;
26052;SDS011;13826;51.186;4.450;2022-07-25T07:00:12;10.63;;;2.92;;
26052;SDS011;13826;51.186;4.450;2022-07-25T07:02:55;18.33;;;3.17;;
26052;SDS011;13826;51.186;4.450;2022-07-25T07:05:27;8.00;;;2.92;;
26052;SDS011;13826;51.186;4.450;2022-07-25T07:07:54;9.20;;;3.10;;
26052;SDS011;13826;51.186;4.450;2022-07-25T07:10:21;9.13;;;3.03;;
26052;SDS011;13826;51.186;4.450;2022-07-25T07:12:47;9.50;;;3.17;;
26052;SDS011;13826;51.186;4.450;2022-07-25T07:15:14;7.28;;;3.08;;
26052;SDS011;13826;51.186;4.450;2022-07-25T07:17:40;9.40;;;2.95;;
26052;SDS011;13826;51.186;4.450;2022-07-25T07:20:06;9.25;;;3.10;;
26052;SDS011;13826;51.186;4.450;2022-07-25T07:22:46;10.23;;;3.08;;
26052;SDS011;13826;51.186;4.450;2022-07-25T07:25:14;12.93;;;3.30;;
26052;SDS011;13826;51.186;4.450;2022-07-25T07:27:41;10.77;;;3.13;;
26052;SDS011;13826;51.186;4.450;2022-07-25T07:30:08;10.93;;;3.35;;
26052;SDS011;13826;51.186;4.450;2022-07-25T07:32:34;15.63;;;3.30;;
26052;SDS011;13826;51.186;4.450;2022-07-25T07:35:00;7.03;;;3.58;;
26052;SDS011;13826;51.186;4.450;2022-07-25T07:37:26;13.68;;;3.28;;
26052;SDS011;13826;51.186;4.450;2022-07-25T07:39:51;14.82;;;3.47;;
26052;SDS011;13826;51.186;4.450;2022-07-25T07:42:17;11.65;;;3.50;;
26052;SDS011;13826;51.186;4.450;2022-07-25T07:44:42;9.93;;;3.03;;
26052;SDS011;13826;51.186;4.450;2022-07-25T07:47:08;8.27;;;2.80;;
26052;SDS011;13826;51.186;4.450;2022-07-25T07:49:34;9.43;;;4.05;;
26052;SDS011;13826;51.186;4.450;2022-07-25T07:51:59;10.40;;;3.45;;
26052;SDS011;13826;51.186;4.450;2022-07-25T07:54:25;12.25;;;3.75;;
26052;SDS011;13826;51.186;4.450;2022-07-25T07:57:10;8.20;;;3.03;;
26052;SDS011;13826;51.186;4.450;2022-07-25T07:59:35;10.00;;;3.03;;
26052;SDS011;13826;51.186;4.450;2022-07-25T08:02:01;8.23;;;2.45;;
26052;SDS011;13826;51.186;4.450;2022-07-25T08:04:27;8.18;;;3.42;;
26052;SDS011;13826;51.186;4.450;2022-07-25T08:06:52;8.00;;;2.70;;
26052;SDS011;13826;51.186;4.450;2022-07-25T08:09:18;6.63;;;2.97;;
26052;SDS011;13826;51.186;4.450;2022-07-25T08:11:44;10.32;;;3.08;;
26052;SDS011;13826;51.186;4.450;2022-07-25T08:14:09;6.20;;;2.35;;
26052;SDS011;13826;51.186;4.450;2022-07-25T08:16:35;7.88;;;2.72;;
26052;SDS011;13826;51.186;4.450;2022-07-25T08:19:00;9.55;;;2.42;;
26052;SDS011;13826;51.186;4.450;2022-07-25T08:21:26;8.75;;;2.40;;
26052;SDS011;13826;51.186;4.450;2022-07-25T08:23:52;7.85;;;2.20;;
26052;SDS011;13826;51.186;4.450;2022-07-25T08:26:18;7.40;;;2.20;;
26052;SDS011;13826;51.186;4.450;2022-07-25T08:28:44;8.00;;;3.03;;
26052;SDS011;13826;51.186;4.450;2022-07-25T08:31:10;9.10;;;2.60;;
26052;SDS011;13826;51.186;4.450;2022-07-25T08:33:36;5.72;;;2.20;;
26052;SDS011;13826;51.186;4.450;2022-07-25T08:36:02;9.38;;;2.85;;
26052;SDS011;13826;51.186;4.450;2022-07-25T08:38:28;5.50;;;2.45;;
26052;SDS011;13826;51.186;4.450;2022-07-25T08:40:54;6.90;;;2.58;;
26052;SDS011;13826;51.186;4.450;2022-07-25T08:43:20;9.48;;;2.70;;
26052;SDS011;13826;51.186;4.450;2022-07-25T08:45:47;8.70;;;3.03;;
26052;SDS011;13826;51.186;4.450;2022-07-25T08:48:18;4.82;;;2.15;;
26052;SDS011;13826;51.186;4.450;2022-07-25T08:50:45;8.65;;;2.60;;
26052;SDS011;13826;51.186;4.450;2022-07-25T08:53:12;6.47;;;1.80;;
26052;SDS011;13826;51.186;4.450;2022-07-25T08:55:40;5.10;;;1.83;;
26052;SDS011;13826;51.186;4.450;2022-07-25T08:58:09;8.43;;;2.00;;
26052;SDS011;13826;51.186;4.450;2022-07-25T09:00:36;3.67;;;1.77;;
26052;SDS011;13826;51.186;4.450;2022-07-25T09:03:02;5.38;;;2.08;;
26052;SDS011;13826;51.186;4.450;2022-07-25T09:05:32;6.13;;;1.80;;
26052;SDS011;13826;51.186;4.450;2022-07-25T09:08:09;6.90;;;1.88;;
26052;SDS011;13826;51.186;4.450;2022-07-25T09:10:36;5.45;;;2.00;;
26052;SDS011;13826;51.186;4.450;2022-07-25T09:13:07;8.32;;;2.10;;
26052;SDS011;13826;51.186;4.450;2022-07-25T09:15:48;3.83;;;2.05;;
26052;SDS011;13826;51.186;4.450;2022-07-25T09:18:16;3.53;;;1.52;;
26052;SDS011;13826;51.186;4.450;2022-07-25T09:20:47;3.42;;;1.58;;
26052;SDS011;13826;51.186;4.450;2022-07-25T09:23:31;9.05;;;2.70;;
26052;SDS011;13826;51.186;4.450;2022-07-25T09:28:42;4.10;;;1.48;;
26052;SDS011;13826;51.186;4.450;2022-07-25T09:31:08;6.22;;;1.70;;
26052;SDS011;13826;51.186;4.450;2022-07-25T09:33:42;4.72;;;1.70;;
26052;SDS011;13826;51.186;4.450;2022-07-25T09:36:10;12.00;;;3.13;;
26052;SDS011;13826;51.186;4.450;2022-07-25T09:38:36;6.68;;;1.70;;
26052;SDS011;13826;51.186;4.450;2022-07-25T09:41:02;6.93;;;2.17;;
26052;SDS011;13826;51.186;4.450;2022-07-25T09:43:38;3.10;;;1.90;;
26052;SDS011;13826;51.186;4.450;2022-07-25T09:46:04;8.93;;;2.30;;
26052;SDS011;13826;51.186;4.450;2022-07-25T09:48:31;6.82;;;1.80;;
26052;SDS011;13826;51.186;4.450;2022-07-25T09:50:57;7.38;;;2.13;;
26052;SDS011;13826;51.186;4.450;2022-07-25T09:53:23;5.72;;;1.92;;
26052;SDS011;13826;51.186;4.450;2022-07-25T09:55:49;4.68;;;1.77;;
26052;SDS011;13826;51.186;4.450;2022-07-25T09:58:17;6.53;;;1.67;;
26052;SDS011;13826;51.186;4.450;2022-07-25T10:00:43;8.38;;;2.20;;
26052;SDS011;13826;51.186;4.450;2022-07-25T10:03:32;7.38;;;1.83;;
26052;SDS011;13826;51.186;4.450;2022-07-25T10:06:34;5.03;;;1.88;;
26052;SDS011;13826;51.186;4.450;2022-07-25T10:09:10;6.70;;;1.60;;
26052;SDS011;13826;51.186;4.450;2022-07-25T10:11:36;4.25;;;1.70;;
26052;SDS011;13826;51.186;4.450;2022-07-25T10:14:08;7.43;;;2.00;;
26052;SDS011;13826;51.186;4.450;2022-07-25T10:16:45;5.55;;;1.75;;
26052;SDS011;13826;51.186;4.450;2022-07-25T10:19:11;7.50;;;1.95;;
26052;SDS011;13826;51.186;4.450;2022-07-25T10:21:37;4.30;;;1.92;;
26052;SDS011;13826;51.186;4.450;2022-07-25T10:24:04;8.63;;;2.00;;
26052;SDS011;13826;51.186;4.450;2022-07-25T10:26:32;9.70;;;2.67;;
26052;SDS011;13826;51.186;4.450;2022-07-25T10:29:06;6.55;;;2.13;;
26052;SDS011;13826;51.186;4.450;2022-07-25T10:31:34;5.35;;;1.98;;
26052;SDS011;13826;51.186;4.450;2022-07-25T10:34:03;6.68;;;2.20;;
26052;SDS011;13826;51.186;4.450;2022-07-25T10:36:42;5.35;;;2.20;;
26052;SDS011;13826;51.186;4.450;2022-07-25T10:39:13;5.78;;;2.03;;
26052;SDS011;13826;51.186;4.450;2022-07-25T10:41:51;8.65;;;2.30;;
26052;SDS011;13826;51.186;4.450;2022-07-25T10:44:18;6.32;;;2.10;;
26052;SDS011;13826;51.186;4.450;2022-07-25T10:46:44;5.45;;;1.73;;
26052;SDS011;13826;51.186;4.450;2022-07-25T10:49:16;9.68;;;2.08;;
26052;SDS011;13826;51.186;4.450;2022-07-25T10:51:50;9.25;;;2.20;;
26052;SDS011;13826;51.186;4.450;2022-07-25T10:54:21;11.20;;;3.35;;
26052;SDS011;13826;51.186;4.450;2022-07-25T10:56:57;6.45;;;2.10;;
26052;SDS011;13826;51.186;4.450;2022-07-25T10:59:27;6.78;;;2.40;;
26052;SDS011;13826;51.186;4.450;2022-07-25T11:01:55;10.10;;;2.60;;
26052;SDS011;13826;51.186;4.450;2022-07-25T11:04:21;8.60;;;2.15;;
26052;SDS011;13826;51.186;4.450;2022-07-25T11:06:47;10.32;;;2.40;;
26052;SDS011;13826;51.186;4.450;2022-07-25T11:11:44;10.20;;;2.47;;
26052;SDS011;13826;51.186;4.450;2022-07-25T11:14:15;8.90;;;2.30;;
26052;SDS011;13826;51.186;4.450;2022-07-25T11:16:43;5.15;;;2.33;;
26052;SDS011;13826;51.186;4.450;2022-07-25T11:19:26;7.57;;;2.40;;
26052;SDS011;13826;51.186;4.450;2022-07-25T11:21:56;10.80;;;2.40;;
26052;SDS011;13826;51.186;4.450;2022-07-25T11:24:33;14.95;;;2.58;;
26052;SDS011;13826;51.186;4.450;2022-07-25T11:26:59;6.43;;;2.10;;
26052;SDS011;13826;51.186;4.450;2022-07-25T11:29:25;4.75;;;2.10;;
26052;SDS011;13826;51.186;4.450;2022-07-25T11:31:54;6.68;;;2.78;;
26052;SDS011;13826;51.186;4.450;2022-07-25T11:34:23;9.85;;;3.03;;
26052;SDS011;13826;51.186;4.450;2022-07-25T11:36:51;11.27;;;2.63;;
26052;SDS011;13826;51.186;4.450;2022-07-25T11:39:21;13.40;;;3.15;;
26052;SDS011;13826;51.186;4.450;2022-07-25T11:41:57;8.57;;;2.17;;
26052;SDS011;13826;51.186;4.450;2022-07-25T11:44:29;10.70;;;3.03;;
26052;SDS011;13826;51.186;4.450;2022-07-25T11:49:54;11.52;;;3.55;;
26052;SDS011;13826;51.186;4.450;2022-07-25T11:52:31;7.63;;;2.20;;
26052;SDS011;13826;51.186;4.450;2022-07-25T11:55:13;6.25;;;2.20;;
26052;SDS011;13826;51.186;4.450;2022-07-25T11:57:42;6.57;;;1.80;;
26052;SDS011;13826;51.186;4.450;2022-07-25T12:02:44;5.07;;;1.70;;
26052;SDS011;13826;51.186;4.450;2022-07-25T12:05:11;6.40;;;2.00;;
26052;SDS011;13826;51.186;4.450;2022-07-25T12:10:30;8.80;;;2.55;;
26052;SDS011;13826;51.186;4.450;2022-07-25T12:12:58;7.28;;;2.30;;
26052;SDS011;13826;51.186;4.450;2022-07-25T12:15:26;7.55;;;1.98;;
26052;SDS011;13826;51.186;4.450;2022-07-25T12:17:54;9.38;;;2.63;;
26052;SDS011;13826;51.186;4.450;2022-07-25T12:20:22;9.88;;;2.30;;
26052;SDS011;13826;51.186;4.450;2022-07-25T12:22:49;8.02;;;2.42;;
26052;SDS011;13826;51.186;4.450;2022-07-25T12:25:16;6.93;;;1.67;;
26052;SDS011;13826;51.186;4.450;2022-07-25T12:27:42;7.72;;;2.50;;
26052;SDS011;13826;51.186;4.450;2022-07-25T12:30:08;8.77;;;2.35;;
26052;SDS011;13826;51.186;4.450;2022-07-25T12:32:35;10.13;;;2.08;;
26052;SDS011;13826;51.186;4.450;2022-07-25T12:35:01;12.80;;;2.97;;
26052;SDS011;13826;51.186;4.450;2022-07-25T12:37:28;10.85;;;2.10;;
26052;SDS011;13826;51.186;4.450;2022-07-25T12:39:54;4.57;;;2.08;;
26052;SDS011;13826;51.186;4.450;2022-07-25T12:42:21;6.53;;;2.28;;
26052;SDS011;13826;51.186;4.450;2022-07-25T12:44:46;7.57;;;2.00;;
26052;SDS011;13826;51.186;4.450;2022-07-25T12:47:12;17.08;;;2.78;;
26052;SDS011;13826;51.186;4.450;2022-07-25T12:49:38;5.60;;;2.28;;
26052;SDS011;13826;51.186;4.450;2022-07-25T12:52:04;7.43;;;2.30;;
26052;SDS011;13826;51.186;4.450;2022-07-25T12:54:30;8.38;;;2.30;;
26052;SDS011;13826;51.186;4.450;2022-07-25T12:56:55;5.32;;;1.90;;
26052;SDS011;13826;51.186;4.450;2022-07-25T12:59:21;3.30;;;1.42;;
26052;SDS011;13826;51.186;4.450;2022-07-25T13:01:47;10.23;;;2.25;;
26052;SDS011;13826;51.186;4.450;2022-07-25T13:04:13;9.00;;;1.88;;
26052;SDS011;13826;51.186;4.450;2022-07-25T13:06:39;11.95;;;1.80;;
26052;SDS011;13826;51.186;4.450;2022-07-25T13:09:05;10.63;;;2.10;;
26052;SDS011;13826;51.186;4.450;2022-07-25T13:11:31;11.85;;;2.13;;
26052;SDS011;13826;51.186;4.450;2022-07-25T13:13:57;10.60;;;2.00;;
26052;SDS011;13826;51.186;4.450;2022-07-25T13:16:23;9.45;;;1.88;;
26052;SDS011;13826;51.186;4.450;2022-07-25T13:18:48;8.07;;;2.10;;
26052;SDS011;13826;51.186;4.450;2022-07-25T13:21:14;12.32;;;2.40;;
26052;SDS011;13826;51.186;4.450;2022-07-25T13:23:40;8.75;;;1.90;;
26052;SDS011;13826;51.186;4.450;2022-07-25T13:26:06;4.40;;;1.83;;
26052;SDS011;13826;51.186;4.450;2022-07-25T13:28:32;8.52;;;1.90;;
26052;SDS011;13826;51.186;4.450;2022-07-25T13:30:58;5.32;;;1.60;;
26052;SDS011;13826;51.186;4.450;2022-07-25T13:33:26;8.70;;;1.90;;
26052;SDS011;13826;51.186;4.450;2022-07-25T13:35:54;10.63;;;1.92;;
26052;SDS011;13826;51.186;4.450;2022-07-25T13:38:20;9.48;;;1.52;;
26052;SDS011;13826;51.186;4.450;2022-07-25T13:40:46;3.10;;;1.60;;
26052;SDS011;13826;51.186;4.450;2022-07-25T13:43:12;4.07;;;1.50;;
26052;SDS011;13826;51.186;4.450;2022-07-25T13:45:38;7.63;;;1.63;;
26052;SDS011;13826;51.186;4.450;2022-07-25T13:48:05;10.05;;;1.83;;
26052;SDS011;13826;51.186;4.450;2022-07-25T13:50:31;7.18;;;1.58;;
26052;SDS011;13826;51.186;4.450;2022-07-25T13:52:58;9.10;;;1.73;;
26052;SDS011;13826;51.186;4.450;2022-07-25T13:55:25;4.78;;;1.17;;
26052;SDS011;13826;51.186;4.450;2022-07-25T13:57:51;6.43;;;1.40;;
26052;SDS011;13826;51.186;4.450;2022-07-25T14:00:17;8.02;;;1.52;;
26052;SDS011;13826;51.186;4.450;2022-07-25T14:02:43;5.53;;;1.50;;
26052;SDS011;13826;51.186;4.450;2022-07-25T14:05:09;8.80;;;1.83;;
26052;SDS011;13826;51.186;4.450;2022-07-25T14:07:35;4.90;;;1.58;;
26052;SDS011;13826;51.186;4.450;2022-07-25T14:10:02;6.07;;;1.98;;
26052;SDS011;13826;51.186;4.450;2022-07-25T14:12:29;7.47;;;2.10;;
26052;SDS011;13826;51.186;4.450;2022-07-25T14:14:54;6.35;;;1.50;;
26052;SDS011;13826;51.186;4.450;2022-07-25T14:17:20;4.45;;;1.50;;
26052;SDS011;13826;51.186;4.450;2022-07-25T14:19:46;13.15;;;1.90;;
26052;SDS011;13826;51.186;4.450;2022-07-25T14:22:12;3.00;;;1.20;;
26052;SDS011;13826;51.186;4.450;2022-07-25T14:24:37;5.78;;;1.42;;
26052;SDS011;13826;51.186;4.450;2022-07-25T14:27:03;9.25;;;1.38;;
26052;SDS011;13826;51.186;4.450;2022-07-25T14:29:29;5.55;;;1.15;;
26052;SDS011;13826;51.186;4.450;2022-07-25T14:31:55;7.50;;;1.42;;
26052;SDS011;13826;51.186;4.450;2022-07-25T14:34:21;9.18;;;1.58;;
26052;SDS011;13826;51.186;4.450;2022-07-25T14:36:46;8.95;;;1.20;;
26052;SDS011;13826;51.186;4.450;2022-07-25T14:39:13;3.08;;;1.10;;
26052;SDS011;13826;51.186;4.450;2022-07-25T14:41:39;4.35;;;0.90;;
26052;SDS011;13826;51.186;4.450;2022-07-25T14:44:06;5.57;;;1.60;;
26052;SDS011;13826;51.186;4.450;2022-07-25T14:46:32;6.50;;;1.40;;
26052;SDS011;13826;51.186;4.450;2022-07-25T14:48:58;5.97;;;1.42;;
26052;SDS011;13826;51.186;4.450;2022-07-25T14:51:24;6.38;;;1.35;;
26052;SDS011;13826;51.186;4.450;2022-07-25T14:53:49;5.72;;;1.00;;
26052;SDS011;13826;51.186;4.450;2022-07-25T14:56:16;2.90;;;1.10;;
26052;SDS011;13826;51.186;4.450;2022-07-25T14:58:42;4.43;;;0.95;;